Terminal Aerodrome Forecast
Issued by NWS Cleveland, OH

Home | Current Version | Previous Version | Text Only | Print | Product List | Glossary Off
Versions: 1 2 3 4 5 6 7 8 9 10 11 12 13 14 15 16 17 18 19

000
FTUS41 KCLE 281900 AAA
TAFYNG
TAF AMD
KYNG 281905Z 2819/2918 32014G20KT P6SM VCSH BKN015 OVC035
      TEMPO 2819/2822 5SM -SHRA BKN009
     FM290100 32006KT P6SM BKN030
      TEMPO 2909/2913 4SM BR SCT030
     FM291600 27008KT P6SM VCSH BKN035=

USA.gov is the U.S. government's official web portal to all federal, state and local government web resources and services.